sensor_id;sensor_type;location;lat;lon;timestamp;temperature;humidity
7159;DHT22;3621;52.374;13.098;2022-08-16T00:01:54;23.50;99.90
7159;DHT22;3621;52.374;13.098;2022-08-16T00:04:20;23.50;99.90
7159;DHT22;3621;52.374;13.098;2022-08-16T00:06:49;23.50;99.90
7159;DHT22;3621;52.374;13.098;2022-08-16T00:09:16;23.50;99.90
7159;DHT22;3621;52.374;13.098;2022-08-16T00:11:45;23.50;99.90
7159;DHT22;3621;52.374;13.098;2022-08-16T00:14:15;23.50;99.90
7159;DHT22;3621;52.374;13.098;2022-08-16T00:16:43;23.50;99.90
7159;DHT22;3621;52.374;13.098;2022-08-16T00:19:10;23.50;99.90
7159;DHT22;3621;52.374;13.098;2022-08-16T00:21:37;23.50;99.90
7159;DHT22;3621;52.374;13.098;2022-08-16T00:24:06;23.50;99.90
7159;DHT22;3621;52.374;13.098;2022-08-16T00:26:33;23.50;99.90
7159;DHT22;3621;52.374;13.098;2022-08-16T00:29:00;23.50;99.90
7159;DHT22;3621;52.374;13.098;2022-08-16T00:31:29;23.40;99.90
7159;DHT22;3621;52.374;13.098;2022-08-16T00:33:56;23.40;99.90
7159;DHT22;3621;52.374;13.098;2022-08-16T00:36:23;23.40;99.90
7159;DHT22;3621;52.374;13.098;2022-08-16T00:38:50;23.30;99.90
7159;DHT22;3621;52.374;13.098;2022-08-16T00:41:19;23.30;99.90
7159;DHT22;3621;52.374;13.098;2022-08-16T00:43:46;23.30;99.90
7159;DHT22;3621;52.374;13.098;2022-08-16T00:46:19;23.20;99.90
7159;DHT22;3621;52.374;13.098;2022-08-16T00:48:48;23.10;99.90
7159;DHT22;3621;52.374;13.098;2022-08-16T00:51:18;23.10;99.90
7159;DHT22;3621;52.374;13.098;2022-08-16T00:53:46;23.00;99.90
7159;DHT22;3621;52.374;13.098;2022-08-16T00:56:16;23.00;99.90
7159;DHT22;3621;52.374;13.098;2022-08-16T00:58:46;23.00;99.90
7159;DHT22;3621;52.374;13.098;2022-08-16T01:01:15;23.00;99.90
7159;DHT22;3621;52.374;13.098;2022-08-16T01:03:44;23.00;99.90
7159;DHT22;3621;52.374;13.098;2022-08-16T01:06:12;23.00;99.90
7159;DHT22;3621;52.374;13.098;2022-08-16T01:08:40;23.00;99.90
7159;DHT22;3621;52.374;13.098;2022-08-16T01:11:08;22.90;99.90
7159;DHT22;3621;52.374;13.098;2022-08-16T01:13:36;23.00;99.90
7159;DHT22;3621;52.374;13.098;2022-08-16T01:16:09;23.00;99.90
7159;DHT22;3621;52.374;13.098;2022-08-16T01:18:41;23.00;99.90
7159;DHT22;3621;52.374;13.098;2022-08-16T01:21:24;23.00;99.90
7159;DHT22;3621;52.374;13.098;2022-08-16T01:24:10;23.00;99.90
7159;DHT22;3621;52.374;13.098;2022-08-16T01:26:38;22.90;99.90
7159;DHT22;3621;52.374;13.098;2022-08-16T01:29:09;23.00;99.90
7159;DHT22;3621;52.374;13.098;2022-08-16T01:31:36;22.90;99.90
7159;DHT22;3621;52.374;13.098;2022-08-16T01:34:03;22.90;99.90
7159;DHT22;3621;52.374;13.098;2022-08-16T01:36:31;22.90;99.90
7159;DHT22;3621;52.374;13.098;2022-08-16T01:39:08;22.90;99.90
7159;DHT22;3621;52.374;13.098;2022-08-16T01:41:36;22.80;99.90
7159;DHT22;3621;52.374;13.098;2022-08-16T01:44:03;22.80;99.90
7159;DHT22;3621;52.374;13.098;2022-08-16T01:46:33;22.80;99.90
7159;DHT22;3621;52.374;13.098;2022-08-16T01:49:03;22.80;99.90
7159;DHT22;3621;52.374;13.098;2022-08-16T01:51:31;22.80;99.90
7159;DHT22;3621;52.374;13.098;2022-08-16T01:53:59;22.80;99.90
7159;DHT22;3621;52.374;13.098;2022-08-16T01:56:26;22.80;99.90
7159;DHT22;3621;52.374;13.098;2022-08-16T01:58:54;22.80;99.90
7159;DHT22;3621;52.374;13.098;2022-08-16T02:01:21;22.80;99.90
7159;DHT22;3621;52.374;13.098;2022-08-16T02:03:49;22.80;99.90
7159;DHT22;3621;52.374;13.098;2022-08-16T02:06:16;22.70;99.90
7159;DHT22;3621;52.374;13.098;2022-08-16T02:08:43;22.70;99.90
7159;DHT22;3621;52.374;13.098;2022-08-16T02:11:12;22.70;99.90
7159;DHT22;3621;52.374;13.098;2022-08-16T02:13:39;22.70;99.90
7159;DHT22;3621;52.374;13.098;2022-08-16T02:16:06;22.70;99.90
7159;DHT22;3621;52.374;13.098;2022-08-16T02:18:34;22.70;99.90
7159;DHT22;3621;52.374;13.098;2022-08-16T02:21:01;22.70;99.90
7159;DHT22;3621;52.374;13.098;2022-08-16T02:23:29;22.60;99.90
7159;DHT22;3621;52.374;13.098;2022-08-16T02:25:55;22.60;99.90
7159;DHT22;3621;52.374;13.098;2022-08-16T02:28:24;22.60;99.90
7159;DHT22;3621;52.374;13.098;2022-08-16T02:30:52;22.60;99.90
7159;DHT22;3621;52.374;13.098;2022-08-16T02:33:20;22.60;99.90
7159;DHT22;3621;52.374;13.098;2022-08-16T02:35:47;22.60;99.90
7159;DHT22;3621;52.374;13.098;2022-08-16T02:38:13;22.50;99.90
7159;DHT22;3621;52.374;13.098;2022-08-16T02:40:40;22.50;99.90
7159;DHT22;3621;52.374;13.098;2022-08-16T02:43:07;22.50;99.90
7159;DHT22;3621;52.374;13.098;2022-08-16T02:45:36;22.50;99.90
7159;DHT22;3621;52.374;13.098;2022-08-16T02:48:03;22.40;99.90
7159;DHT22;3621;52.374;13.098;2022-08-16T02:50:30;22.40;99.90
7159;DHT22;3621;52.374;13.098;2022-08-16T02:52:57;22.40;99.90
7159;DHT22;3621;52.374;13.098;2022-08-16T02:55:24;22.40;99.90
7159;DHT22;3621;52.374;13.098;2022-08-16T02:57:51;22.30;99.90
7159;DHT22;3621;52.374;13.098;2022-08-16T03:00:18;22.30;99.90
7159;DHT22;3621;52.374;13.098;2022-08-16T03:02:47;22.30;99.90
7159;DHT22;3621;52.374;13.098;2022-08-16T03:05:15;22.30;99.90
7159;DHT22;3621;52.374;13.098;2022-08-16T03:07:42;22.30;99.90
7159;DHT22;3621;52.374;13.098;2022-08-16T03:10:10;22.30;99.90
7159;DHT22;3621;52.374;13.098;2022-08-16T03:12:38;22.20;99.90
7159;DHT22;3621;52.374;13.098;2022-08-16T03:15:08;22.20;99.90
7159;DHT22;3621;52.374;13.098;2022-08-16T03:17:35;22.20;99.90
7159;DHT22;3621;52.374;13.098;2022-08-16T03:20:04;22.20;99.90
7159;DHT22;3621;52.374;13.098;2022-08-16T03:22:32;22.20;99.90
7159;DHT22;3621;52.374;13.098;2022-08-16T03:25:03;22.20;99.90
7159;DHT22;3621;52.374;13.098;2022-08-16T03:27:31;22.20;99.90
7159;DHT22;3621;52.374;13.098;2022-08-16T03:29:59;22.20;99.90
7159;DHT22;3621;52.374;13.098;2022-08-16T03:32:27;22.10;99.90
7159;DHT22;3621;52.374;13.098;2022-08-16T03:34:54;22.10;99.90
7159;DHT22;3621;52.374;13.098;2022-08-16T03:37:22;22.10;99.90
7159;DHT22;3621;52.374;13.098;2022-08-16T03:39:49;22.10;99.90
7159;DHT22;3621;52.374;13.098;2022-08-16T03:42:16;22.00;99.90
7159;DHT22;3621;52.374;13.098;2022-08-16T03:44:43;22.00;99.90
7159;DHT22;3621;52.374;13.098;2022-08-16T03:47:10;22.00;99.90
7159;DHT22;3621;52.374;13.098;2022-08-16T03:49:37;21.90;99.90
7159;DHT22;3621;52.374;13.098;2022-08-16T03:52:04;21.90;99.90
7159;DHT22;3621;52.374;13.098;2022-08-16T03:54:33;21.90;99.90
7159;DHT22;3621;52.374;13.098;2022-08-16T03:57:00;21.90;99.90
7159;DHT22;3621;52.374;13.098;2022-08-16T03:59:27;21.80;99.90
7159;DHT22;3621;52.374;13.098;2022-08-16T04:01:56;21.80;99.90
7159;DHT22;3621;52.374;13.098;2022-08-16T04:04:23;21.80;99.90
7159;DHT22;3621;52.374;13.098;2022-08-16T04:06:50;21.70;99.90
7159;DHT22;3621;52.374;13.098;2022-08-16T04:09:17;21.70;99.90
7159;DHT22;3621;52.374;13.098;2022-08-16T04:11:45;21.60;99.90
7159;DHT22;3621;52.374;13.098;2022-08-16T04:14:12;21.60;99.90
7159;DHT22;3621;52.374;13.098;2022-08-16T04:16:39;21.50;99.90
7159;DHT22;3621;52.374;13.098;2022-08-16T04:19:06;21.50;99.90
7159;DHT22;3621;52.374;13.098;2022-08-16T04:21:34;21.50;99.90
7159;DHT22;3621;52.374;13.098;2022-08-16T04:24:02;21.40;99.90
7159;DHT22;3621;52.374;13.098;2022-08-16T04:26:30;21.40;99.90
7159;DHT22;3621;52.374;13.098;2022-08-16T04:28:59;21.40;99.90
7159;DHT22;3621;52.374;13.098;2022-08-16T04:31:26;21.40;99.90
7159;DHT22;3621;52.374;13.098;2022-08-16T04:33:53;21.40;99.90
7159;DHT22;3621;52.374;13.098;2022-08-16T04:36:24;21.30;99.90
7159;DHT22;3621;52.374;13.098;2022-08-16T04:38:52;21.30;99.90
7159;DHT22;3621;52.374;13.098;2022-08-16T04:41:19;21.20;99.90
7159;DHT22;3621;52.374;13.098;2022-08-16T04:43:46;21.30;99.90
7159;DHT22;3621;52.374;13.098;2022-08-16T04:46:15;21.30;99.90
7159;DHT22;3621;52.374;13.098;2022-08-16T04:48:42;21.30;99.90
7159;DHT22;3621;52.374;13.098;2022-08-16T04:51:10;21.30;99.90
7159;DHT22;3621;52.374;13.098;2022-08-16T04:53:37;21.30;99.90
7159;DHT22;3621;52.374;13.098;2022-08-16T04:56:05;21.30;99.90
7159;DHT22;3621;52.374;13.098;2022-08-16T04:58:32;21.40;99.90
7159;DHT22;3621;52.374;13.098;2022-08-16T05:00:59;21.40;99.90
7159;DHT22;3621;52.374;13.098;2022-08-16T05:03:28;21.40;99.90
7159;DHT22;3621;52.374;13.098;2022-08-16T05:05:55;21.40;99.90
7159;DHT22;3621;52.374;13.098;2022-08-16T05:08:23;21.40;99.90
7159;DHT22;3621;52.374;13.098;2022-08-16T05:10:50;21.40;99.90
7159;DHT22;3621;52.374;13.098;2022-08-16T05:13:17;21.50;99.90
7159;DHT22;3621;52.374;13.098;2022-08-16T05:15:44;21.50;99.90
7159;DHT22;3621;52.374;13.098;2022-08-16T05:18:12;21.50;99.90
7159;DHT22;3621;52.374;13.098;2022-08-16T05:20:40;21.60;99.90
7159;DHT22;3621;52.374;13.098;2022-08-16T05:23:07;21.60;99.90
7159;DHT22;3621;52.374;13.098;2022-08-16T05:25:34;21.60;99.90
7159;DHT22;3621;52.374;13.098;2022-08-16T05:28:01;21.60;99.90
7159;DHT22;3621;52.374;13.098;2022-08-16T05:30:28;21.60;99.90
7159;DHT22;3621;52.374;13.098;2022-08-16T05:32:55;21.60;99.90
7159;DHT22;3621;52.374;13.098;2022-08-16T05:35:21;21.50;99.90
7159;DHT22;3621;52.374;13.098;2022-08-16T05:37:50;21.60;99.90
7159;DHT22;3621;52.374;13.098;2022-08-16T05:40:17;21.50;99.90
7159;DHT22;3621;52.374;13.098;2022-08-16T05:42:44;21.50;99.90
7159;DHT22;3621;52.374;13.098;2022-08-16T05:45:12;21.50;99.90
7159;DHT22;3621;52.374;13.098;2022-08-16T05:47:39;21.50;99.90
7159;DHT22;3621;52.374;13.098;2022-08-16T05:50:07;21.50;99.90
7159;DHT22;3621;52.374;13.098;2022-08-16T05:52:34;21.40;99.90
7159;DHT22;3621;52.374;13.098;2022-08-16T05:55:04;21.40;99.90
7159;DHT22;3621;52.374;13.098;2022-08-16T05:57:31;21.40;99.90
7159;DHT22;3621;52.374;13.098;2022-08-16T05:59:58;21.40;99.90
7159;DHT22;3621;52.374;13.098;2022-08-16T06:02:25;21.50;99.90
7159;DHT22;3621;52.374;13.098;2022-08-16T06:04:55;21.50;99.90
7159;DHT22;3621;52.374;13.098;2022-08-16T06:07:22;21.50;99.90
7159;DHT22;3621;52.374;13.098;2022-08-16T06:09:48;21.50;99.90
7159;DHT22;3621;52.374;13.098;2022-08-16T06:12:17;21.60;99.90
7159;DHT22;3621;52.374;13.098;2022-08-16T06:14:44;21.60;99.90
7159;DHT22;3621;52.374;13.098;2022-08-16T06:17:11;21.60;99.90
7159;DHT22;3621;52.374;13.098;2022-08-16T06:19:40;21.70;99.90
7159;DHT22;3621;52.374;13.098;2022-08-16T06:22:07;21.70;99.90
7159;DHT22;3621;52.374;13.098;2022-08-16T06:24:35;21.70;99.90
7159;DHT22;3621;52.374;13.098;2022-08-16T06:27:02;21.80;99.90
7159;DHT22;3621;52.374;13.098;2022-08-16T06:29:30;21.80;99.90
7159;DHT22;3621;52.374;13.098;2022-08-16T06:31:57;21.90;99.90
7159;DHT22;3621;52.374;13.098;2022-08-16T06:34:24;22.00;99.90
7159;DHT22;3621;52.374;13.098;2022-08-16T06:36:51;22.10;99.90
7159;DHT22;3621;52.374;13.098;2022-08-16T06:39:18;22.20;99.90
7159;DHT22;3621;52.374;13.098;2022-08-16T06:41:45;22.30;99.90
7159;DHT22;3621;52.374;13.098;2022-08-16T06:44:12;22.40;99.90
7159;DHT22;3621;52.374;13.098;2022-08-16T06:46:40;22.50;99.90
7159;DHT22;3621;52.374;13.098;2022-08-16T06:49:09;22.60;99.90
7159;DHT22;3621;52.374;13.098;2022-08-16T06:51:37;22.70;99.90
7159;DHT22;3621;52.374;13.098;2022-08-16T06:54:05;22.80;99.90
7159;DHT22;3621;52.374;13.098;2022-08-16T06:56:32;22.90;99.90
7159;DHT22;3621;52.374;13.098;2022-08-16T06:59:00;23.10;99.90
7159;DHT22;3621;52.374;13.098;2022-08-16T07:01:26;23.10;99.90
7159;DHT22;3621;52.374;13.098;2022-08-16T07:03:56;23.20;99.90
7159;DHT22;3621;52.374;13.098;2022-08-16T07:06:23;23.30;99.90
7159;DHT22;3621;52.374;13.098;2022-08-16T07:08:50;23.40;99.90
7159;DHT22;3621;52.374;13.098;2022-08-16T07:11:17;23.40;99.90
7159;DHT22;3621;52.374;13.098;2022-08-16T07:13:45;23.50;99.90
7159;DHT22;3621;52.374;13.098;2022-08-16T07:16:14;23.60;99.90
7159;DHT22;3621;52.374;13.098;2022-08-16T07:18:41;23.60;99.90
7159;DHT22;3621;52.374;13.098;2022-08-16T07:21:10;23.70;99.90
7159;DHT22;3621;52.374;13.098;2022-08-16T07:23:37;23.80;99.90
7159;DHT22;3621;52.374;13.098;2022-08-16T07:26:07;23.90;99.90
7159;DHT22;3621;52.374;13.098;2022-08-16T07:28:35;23.90;99.90
7159;DHT22;3621;52.374;13.098;2022-08-16T07:31:02;24.00;99.90
7159;DHT22;3621;52.374;13.098;2022-08-16T07:33:29;24.10;99.90
7159;DHT22;3621;52.374;13.098;2022-08-16T07:35:57;24.10;99.90
7159;DHT22;3621;52.374;13.098;2022-08-16T07:38:26;24.20;99.90
7159;DHT22;3621;52.374;13.098;2022-08-16T07:40:53;24.30;99.90
7159;DHT22;3621;52.374;13.098;2022-08-16T07:43:20;24.40;99.90
7159;DHT22;3621;52.374;13.098;2022-08-16T07:45:47;24.50;99.90
7159;DHT22;3621;52.374;13.098;2022-08-16T07:48:14;24.50;99.90
7159;DHT22;3621;52.374;13.098;2022-08-16T07:50:42;24.60;99.90
7159;DHT22;3621;52.374;13.098;2022-08-16T07:53:09;24.70;99.90
7159;DHT22;3621;52.374;13.098;2022-08-16T07:55:38;24.80;99.90
7159;DHT22;3621;52.374;13.098;2022-08-16T07:58:05;24.90;99.90
7159;DHT22;3621;52.374;13.098;2022-08-16T08:00:33;25.00;99.90
7159;DHT22;3621;52.374;13.098;2022-08-16T08:03:01;25.10;99.90
7159;DHT22;3621;52.374;13.098;2022-08-16T08:05:28;25.20;99.90
7159;DHT22;3621;52.374;13.098;2022-08-16T08:07:55;25.30;99.90
7159;DHT22;3621;52.374;13.098;2022-08-16T08:10:23;25.40;99.90
7159;DHT22;3621;52.374;13.098;2022-08-16T08:12:53;25.60;99.90
7159;DHT22;3621;52.374;13.098;2022-08-16T08:15:22;25.70;99.90
7159;DHT22;3621;52.374;13.098;2022-08-16T08:17:49;25.80;99.90
7159;DHT22;3621;52.374;13.098;2022-08-16T08:20:18;25.90;99.90
7159;DHT22;3621;52.374;13.098;2022-08-16T08:22:47;26.00;99.90
7159;DHT22;3621;52.374;13.098;2022-08-16T08:25:16;26.10;99.90
7159;DHT22;3621;52.374;13.098;2022-08-16T08:27:45;26.30;99.90
7159;DHT22;3621;52.374;13.098;2022-08-16T08:30:14;26.40;99.90
7159;DHT22;3621;52.374;13.098;2022-08-16T08:32:41;26.50;99.90
7159;DHT22;3621;52.374;13.098;2022-08-16T08:35:08;26.60;99.90
7159;DHT22;3621;52.374;13.098;2022-08-16T08:37:36;26.60;99.90
7159;DHT22;3621;52.374;13.098;2022-08-16T08:40:05;26.70;99.90
7159;DHT22;3621;52.374;13.098;2022-08-16T08:42:32;26.80;99.90
7159;DHT22;3621;52.374;13.098;2022-08-16T08:44:59;26.90;99.90
7159;DHT22;3621;52.374;13.098;2022-08-16T08:47:28;27.00;99.90
7159;DHT22;3621;52.374;13.098;2022-08-16T08:49:56;27.00;99.90
7159;DHT22;3621;52.374;13.098;2022-08-16T08:52:23;27.10;99.90
7159;DHT22;3621;52.374;13.098;2022-08-16T08:54:50;27.30;99.50
7159;DHT22;3621;52.374;13.098;2022-08-16T08:57:17;27.40;99.30
7159;DHT22;3621;52.374;13.098;2022-08-16T08:59:45;27.50;98.70
7159;DHT22;3621;52.374;13.098;2022-08-16T09:02:12;27.60;98.50
7159;DHT22;3621;52.374;13.098;2022-08-16T09:04:42;27.70;98.30
7159;DHT22;3621;52.374;13.098;2022-08-16T09:07:09;27.90;98.30
7159;DHT22;3621;52.374;13.098;2022-08-16T09:09:36;28.00;97.20
7159;DHT22;3621;52.374;13.098;2022-08-16T09:12:04;28.10;96.80
7159;DHT22;3621;52.374;13.098;2022-08-16T09:14:32;28.20;96.50
7159;DHT22;3621;52.374;13.098;2022-08-16T09:16:59;28.30;94.90
7159;DHT22;3621;52.374;13.098;2022-08-16T09:19:26;28.40;94.60
7159;DHT22;3621;52.374;13.098;2022-08-16T09:21:55;28.50;94.60
7159;DHT22;3621;52.374;13.098;2022-08-16T09:24:22;28.60;94.40
7159;DHT22;3621;52.374;13.098;2022-08-16T09:26:49;28.80;94.10
7159;DHT22;3621;52.374;13.098;2022-08-16T09:29:16;29.00;92.90
7159;DHT22;3621;52.374;13.098;2022-08-16T09:31:44;29.10;92.50
7159;DHT22;3621;52.374;13.098;2022-08-16T09:34:12;29.30;91.80
7159;DHT22;3621;52.374;13.098;2022-08-16T09:36:39;29.40;91.00
7159;DHT22;3621;52.374;13.098;2022-08-16T09:39:07;29.60;91.10
7159;DHT22;3621;52.374;13.098;2022-08-16T09:41:34;29.70;90.80
7159;DHT22;3621;52.374;13.098;2022-08-16T09:44:02;29.90;91.00
7159;DHT22;3621;52.374;13.098;2022-08-16T09:46:30;30.10;90.60
7159;DHT22;3621;52.374;13.098;2022-08-16T09:48:57;30.30;90.40
7159;DHT22;3621;52.374;13.098;2022-08-16T09:51:24;30.50;90.00
7159;DHT22;3621;52.374;13.098;2022-08-16T09:53:51;30.70;88.10
7159;DHT22;3621;52.374;13.098;2022-08-16T09:56:25;30.70;83.60
7159;DHT22;3621;52.374;13.098;2022-08-16T09:58:53;30.60;82.90
7159;DHT22;3621;52.374;13.098;2022-08-16T10:01:20;30.50;83.20
7159;DHT22;3621;52.374;13.098;2022-08-16T10:03:48;30.40;84.00
7159;DHT22;3621;52.374;13.098;2022-08-16T10:06:16;30.20;84.60
7159;DHT22;3621;52.374;13.098;2022-08-16T10:08:43;30.10;85.70
7159;DHT22;3621;52.374;13.098;2022-08-16T10:11:10;29.90;86.70
7159;DHT22;3621;52.374;13.098;2022-08-16T10:13:56;29.80;87.40
7159;DHT22;3621;52.374;13.098;2022-08-16T10:16:23;29.60;87.50
7159;DHT22;3621;52.374;13.098;2022-08-16T10:18:50;29.70;88.20
7159;DHT22;3621;52.374;13.098;2022-08-16T10:21:18;29.90;88.20
7159;DHT22;3621;52.374;13.098;2022-08-16T10:23:45;30.30;87.10
7159;DHT22;3621;52.374;13.098;2022-08-16T10:26:13;30.80;85.70
7159;DHT22;3621;52.374;13.098;2022-08-16T10:28:40;31.50;82.70
7159;DHT22;3621;52.374;13.098;2022-08-16T10:31:10;32.10;78.90
7159;DHT22;3621;52.374;13.098;2022-08-16T10:33:38;32.80;74.90
7159;DHT22;3621;52.374;13.098;2022-08-16T10:36:06;33.40;72.40
7159;DHT22;3621;52.374;13.098;2022-08-16T10:38:35;34.00;63.30
7159;DHT22;3621;52.374;13.098;2022-08-16T10:41:03;34.50;61.50
7159;DHT22;3621;52.374;13.098;2022-08-16T10:43:30;35.10;61.20
7159;DHT22;3621;52.374;13.098;2022-08-16T10:45:58;35.30;59.40
7159;DHT22;3621;52.374;13.098;2022-08-16T10:48:26;35.20;57.90
7159;DHT22;3621;52.374;13.098;2022-08-16T10:50:54;35.20;58.10
7159;DHT22;3621;52.374;13.098;2022-08-16T10:53:22;35.50;57.90
7159;DHT22;3621;52.374;13.098;2022-08-16T10:55:49;35.50;56.50
7159;DHT22;3621;52.374;13.098;2022-08-16T10:58:16;35.20;55.50
7159;DHT22;3621;52.374;13.098;2022-08-16T11:00:43;34.70;53.60
7159;DHT22;3621;52.374;13.098;2022-08-16T11:03:11;34.50;53.70
7159;DHT22;3621;52.374;13.098;2022-08-16T11:05:40;34.70;53.60
7159;DHT22;3621;52.374;13.098;2022-08-16T11:08:08;35.10;53.80
7159;DHT22;3621;52.374;13.098;2022-08-16T11:10:39;35.10;53.90
7159;DHT22;3621;52.374;13.098;2022-08-16T11:13:07;34.80;54.20
7159;DHT22;3621;52.374;13.098;2022-08-16T11:15:35;34.70;54.50
7159;DHT22;3621;52.374;13.098;2022-08-16T11:18:03;34.70;55.00
7159;DHT22;3621;52.374;13.098;2022-08-16T11:20:32;35.30;53.20
7159;DHT22;3621;52.374;13.098;2022-08-16T11:23:00;35.90;52.10
7159;DHT22;3621;52.374;13.098;2022-08-16T11:25:29;36.50;50.40
7159;DHT22;3621;52.374;13.098;2022-08-16T11:27:57;36.70;48.20
7159;DHT22;3621;52.374;13.098;2022-08-16T11:30:25;36.30;48.30
7159;DHT22;3621;52.374;13.098;2022-08-16T11:32:52;35.80;48.50
7159;DHT22;3621;52.374;13.098;2022-08-16T11:35:21;35.20;49.40
7159;DHT22;3621;52.374;13.098;2022-08-16T11:37:51;34.60;49.50
7159;DHT22;3621;52.374;13.098;2022-08-16T11:40:21;34.50;51.60
7159;DHT22;3621;52.374;13.098;2022-08-16T11:42:48;35.10;51.50
7159;DHT22;3621;52.374;13.098;2022-08-16T11:45:16;35.80;50.50
7159;DHT22;3621;52.374;13.098;2022-08-16T11:47:43;36.60;49.60
7159;DHT22;3621;52.374;13.098;2022-08-16T11:50:10;37.10;47.70
7159;DHT22;3621;52.374;13.098;2022-08-16T11:52:38;37.00;47.70
7159;DHT22;3621;52.374;13.098;2022-08-16T11:55:09;36.60;48.10
7159;DHT22;3621;52.374;13.098;2022-08-16T11:57:38;36.00;49.00
7159;DHT22;3621;52.374;13.098;2022-08-16T12:00:09;35.30;49.70
7159;DHT22;3621;52.374;13.098;2022-08-16T12:02:36;34.70;50.00
7159;DHT22;3621;52.374;13.098;2022-08-16T12:05:04;34.20;50.70
7159;DHT22;3621;52.374;13.098;2022-08-16T12:07:31;33.80;52.10
7159;DHT22;3621;52.374;13.098;2022-08-16T12:09:59;33.30;53.00
7159;DHT22;3621;52.374;13.098;2022-08-16T12:12:26;32.90;53.00
7159;DHT22;3621;52.374;13.098;2022-08-16T12:14:54;32.60;53.50
7159;DHT22;3621;52.374;13.098;2022-08-16T12:17:21;32.30;54.60
7159;DHT22;3621;52.374;13.098;2022-08-16T12:19:48;32.10;54.90
7159;DHT22;3621;52.374;13.098;2022-08-16T12:22:15;31.90;55.10
7159;DHT22;3621;52.374;13.098;2022-08-16T12:24:42;31.70;55.40
7159;DHT22;3621;52.374;13.098;2022-08-16T12:27:09;31.50;55.50
7159;DHT22;3621;52.374;13.098;2022-08-16T12:29:36;31.30;55.80
7159;DHT22;3621;52.374;13.098;2022-08-16T12:32:04;31.20;56.80
7159;DHT22;3621;52.374;13.098;2022-08-16T12:34:31;31.10;57.40
7159;DHT22;3621;52.374;13.098;2022-08-16T12:36:59;30.90;57.60
7159;DHT22;3621;52.374;13.098;2022-08-16T12:39:27;30.90;58.30
7159;DHT22;3621;52.374;13.098;2022-08-16T12:41:54;30.90;57.20
7159;DHT22;3621;52.374;13.098;2022-08-16T12:44:21;30.90;57.20
7159;DHT22;3621;52.374;13.098;2022-08-16T12:46:50;31.00;56.30
7159;DHT22;3621;52.374;13.098;2022-08-16T12:49:32;31.10;55.80
7159;DHT22;3621;52.374;13.098;2022-08-16T12:51:59;31.20;55.30
7159;DHT22;3621;52.374;13.098;2022-08-16T12:54:26;31.30;55.50
7159;DHT22;3621;52.374;13.098;2022-08-16T12:56:53;31.30;55.60
7159;DHT22;3621;52.374;13.098;2022-08-16T12:59:20;31.30;55.70
7159;DHT22;3621;52.374;13.098;2022-08-16T13:01:48;31.30;53.90
7159;DHT22;3621;52.374;13.098;2022-08-16T13:04:15;31.30;54.50
7159;DHT22;3621;52.374;13.098;2022-08-16T13:06:43;31.30;54.30
7159;DHT22;3621;52.374;13.098;2022-08-16T13:09:10;31.30;54.40
7159;DHT22;3621;52.374;13.098;2022-08-16T13:11:54;31.30;54.80
7159;DHT22;3621;52.374;13.098;2022-08-16T13:14:26;31.30;55.00
7159;DHT22;3621;52.374;13.098;2022-08-16T13:16:54;31.30;54.90
7159;DHT22;3621;52.374;13.098;2022-08-16T13:19:20;31.30;55.20
7159;DHT22;3621;52.374;13.098;2022-08-16T13:21:49;31.30;55.50
7159;DHT22;3621;52.374;13.098;2022-08-16T13:24:16;31.30;54.30
7159;DHT22;3621;52.374;13.098;2022-08-16T13:26:43;31.50;54.20
7159;DHT22;3621;52.374;13.098;2022-08-16T13:29:10;31.60;53.50
7159;DHT22;3621;52.374;13.098;2022-08-16T13:31:37;31.60;53.70
7159;DHT22;3621;52.374;13.098;2022-08-16T13:34:04;31.70;53.10
7159;DHT22;3621;52.374;13.098;2022-08-16T13:36:31;31.60;53.00
7159;DHT22;3621;52.374;13.098;2022-08-16T13:38:59;31.70;53.60
7159;DHT22;3621;52.374;13.098;2022-08-16T13:41:28;31.60;54.10
7159;DHT22;3621;52.374;13.098;2022-08-16T13:43:55;31.60;54.20
7159;DHT22;3621;52.374;13.098;2022-08-16T13:46:22;31.60;54.30
7159;DHT22;3621;52.374;13.098;2022-08-16T13:48:49;31.60;54.50
7159;DHT22;3621;52.374;13.098;2022-08-16T13:51:17;31.50;54.50
7159;DHT22;3621;52.374;13.098;2022-08-16T13:53:45;31.50;54.60
7159;DHT22;3621;52.374;13.098;2022-08-16T13:56:13;31.40;54.90
7159;DHT22;3621;52.374;13.098;2022-08-16T13:58:42;31.40;55.00
7159;DHT22;3621;52.374;13.098;2022-08-16T14:01:10;31.30;54.50
7159;DHT22;3621;52.374;13.098;2022-08-16T14:03:38;31.30;54.70
7159;DHT22;3621;52.374;13.098;2022-08-16T14:06:05;31.40;53.80
7159;DHT22;3621;52.374;13.098;2022-08-16T14:08:32;31.40;53.90
7159;DHT22;3621;52.374;13.098;2022-08-16T14:10:59;31.40;54.50
7159;DHT22;3621;52.374;13.098;2022-08-16T14:13:27;31.40;54.40
7159;DHT22;3621;52.374;13.098;2022-08-16T14:15:54;31.40;54.30
7159;DHT22;3621;52.374;13.098;2022-08-16T14:18:21;31.30;54.50
7159;DHT22;3621;52.374;13.098;2022-08-16T14:20:48;31.40;55.00
7159;DHT22;3621;52.374;13.098;2022-08-16T14:23:15;31.40;54.90
7159;DHT22;3621;52.374;13.098;2022-08-16T14:25:42;31.40;54.60
7159;DHT22;3621;52.374;13.098;2022-08-16T14:28:09;31.40;54.60
7159;DHT22;3621;52.374;13.098;2022-08-16T14:30:37;31.40;54.30
7159;DHT22;3621;52.374;13.098;2022-08-16T14:33:05;31.30;54.40
7159;DHT22;3621;52.374;13.098;2022-08-16T14:35:32;31.30;54.40
7159;DHT22;3621;52.374;13.098;2022-08-16T14:38:00;31.30;54.50
7159;DHT22;3621;52.374;13.098;2022-08-16T14:40:27;31.20;54.50
7159;DHT22;3621;52.374;13.098;2022-08-16T14:42:55;31.20;55.00
7159;DHT22;3621;52.374;13.098;2022-08-16T14:45:23;31.10;54.20
7159;DHT22;3621;52.374;13.098;2022-08-16T14:47:52;31.10;54.10
7159;DHT22;3621;52.374;13.098;2022-08-16T14:50:22;31.10;55.10
7159;DHT22;3621;52.374;13.098;2022-08-16T14:52:55;31.10;54.80
7159;DHT22;3621;52.374;13.098;2022-08-16T14:55:25;31.10;54.40
7159;DHT22;3621;52.374;13.098;2022-08-16T14:57:52;31.30;54.20
7159;DHT22;3621;52.374;13.098;2022-08-16T15:00:18;31.30;53.90
7159;DHT22;3621;52.374;13.098;2022-08-16T15:02:49;31.50;53.30
7159;DHT22;3621;52.374;13.098;2022-08-16T15:05:19;31.60;52.70
7159;DHT22;3621;52.374;13.098;2022-08-16T15:07:46;31.80;52.90
7159;DHT22;3621;52.374;13.098;2022-08-16T15:10:14;32.00;51.80
7159;DHT22;3621;52.374;13.098;2022-08-16T15:12:42;32.10;50.90
7159;DHT22;3621;52.374;13.098;2022-08-16T15:15:13;32.20;50.70
7159;DHT22;3621;52.374;13.098;2022-08-16T15:17:42;32.30;51.00
7159;DHT22;3621;52.374;13.098;2022-08-16T15:20:10;32.20;50.70
7159;DHT22;3621;52.374;13.098;2022-08-16T15:22:40;32.10;50.50
7159;DHT22;3621;52.374;13.098;2022-08-16T15:25:10;32.00;50.80
7159;DHT22;3621;52.374;13.098;2022-08-16T15:27:38;32.00;50.60
7159;DHT22;3621;52.374;13.098;2022-08-16T15:30:10;31.80;51.10
7159;DHT22;3621;52.374;13.098;2022-08-16T15:32:38;31.80;51.90
7159;DHT22;3621;52.374;13.098;2022-08-16T15:35:06;31.80;52.10
7159;DHT22;3621;52.374;13.098;2022-08-16T15:37:34;31.80;52.10
7159;DHT22;3621;52.374;13.098;2022-08-16T15:40:08;31.80;52.60
7159;DHT22;3621;52.374;13.098;2022-08-16T15:42:36;31.80;52.60
7159;DHT22;3621;52.374;13.098;2022-08-16T15:45:05;31.90;52.90
7159;DHT22;3621;52.374;13.098;2022-08-16T15:47:33;31.90;52.10
7159;DHT22;3621;52.374;13.098;2022-08-16T15:50:00;31.90;52.50